KSBY/SBY METAR and TAF weather

Enter ICAO airport designator
Station Type Date Time Source
KSBY METAR 2020/03/31 05:54 UTC NOAA

KSBY 310554Z AUTO 03003KT 9SM OVC005 09/07 A2996 RMK AO2 SLP148 T00890067 10156 20083 56004


Station Type Date Time Source
KSBY Decoded METAR 2020/03/31 05:54 UTC NOAA

SALISBURY-WICOMICO CTY REG, MD, United States (KSBY) 38-20N 075-30W 19M
Mar 31, 2020 - 01:54 AM EDT / 2020.03.31 0554 UTC
Wind: from the NNE (030 degrees) at 3 MPH (3 KT):0
Visibility: 9 mile(s):0
Sky conditions: overcast
Temperature: 48.0 F (8.9 C)
Dew Point: 44.1 F (6.7 C)
Relative Humidity: 86%
Pressure (altimeter): 29.96 in. Hg (1014 hPa)
Pressure tendency: 0.01 inches (0.4 hPa) lower than three hours ago
ob: KSBY 310554Z AUTO 03003KT 9SM OVC005 09/07 A2996 RMK AO2 SLP148 T00890067 10156 20083 56004
cycle: 6

Station Type Date Time Source
KSBY TAF 2020/03/31 06:42 UTC NOAA

TAF KSBY 310540Z 3106/0106 04006KT P6SM OVC006
FM310900 01005KT P6SM BKN008
FM311200 02005KT P6SM OVC020
FM311600 07007KT P6SM OVC015
FM312100 04010KT P6SM OVC020

Example: see airport list